sensor_id;sensor_type;location;lat;lon;timestamp;pressure;altitude;pressure_sealevel;temperature;humidity
50484;BME280;36409;52.168;20.878;2024-02-15T00:01:07;101045.78;;;4.32;66.01
50484;BME280;36409;52.168;20.878;2024-02-15T00:03:40;101048.37;;;4.32;65.67
50484;BME280;36409;52.168;20.878;2024-02-15T00:06:10;101034.59;;;4.31;65.50
50484;BME280;36409;52.168;20.878;2024-02-15T00:08:39;101036.28;;;4.31;65.81
50484;BME280;36409;52.168;20.878;2024-02-15T00:11:08;101040.61;;;4.32;65.56
50484;BME280;36409;52.168;20.878;2024-02-15T00:13:38;101035.44;;;4.32;65.45
50484;BME280;36409;52.168;20.878;2024-02-15T00:16:07;101039.78;;;4.33;65.72
50484;BME280;36409;52.168;20.878;2024-02-15T00:18:37;101039.78;;;4.33;65.75
50484;BME280;36409;52.168;20.878;2024-02-15T00:21:06;101035.44;;;4.32;65.69
50484;BME280;36409;52.168;20.878;2024-02-15T00:23:38;101044.95;;;4.33;65.34
50484;BME280;36409;52.168;20.878;2024-02-15T00:26:08;101039.75;;;4.31;65.89
50484;BME280;36409;52.168;20.878;2024-02-15T00:28:42;101050.12;;;4.33;65.76
50484;BME280;36409;52.168;20.878;2024-02-15T00:31:12;101047.51;;;4.31;65.68
50484;BME280;36409;52.168;20.878;2024-02-15T00:33:44;101044.92;;;4.31;65.37
50484;BME280;36409;52.168;20.878;2024-02-15T00:36:14;101045.78;;;4.32;65.69
50484;BME280;36409;52.168;20.878;2024-02-15T00:38:44;101048.37;;;4.32;65.70
50484;BME280;36409;52.168;20.878;2024-02-15T00:41:13;101048.39;;;4.33;65.94
50484;BME280;36409;52.168;20.878;2024-02-15T00:43:42;101053.56;;;4.33;66.00
50484;BME280;36409;52.168;20.878;2024-02-15T00:46:14;101044.11;;;4.34;65.97
50484;BME280;36409;52.168;20.878;2024-02-15T00:48:44;101045.80;;;4.33;65.45
50484;BME280;36409;52.168;20.878;2024-02-15T00:51:14;101048.39;;;4.33;66.01
50484;BME280;36409;52.168;20.878;2024-02-15T00:53:43;101045.80;;;4.33;65.48
50484;BME280;36409;52.168;20.878;2024-02-15T00:56:12;101046.70;;;4.34;65.59
50484;BME280;36409;52.168;20.878;2024-02-15T00:58:40;101043.22;;;4.33;65.44
50484;BME280;36409;52.168;20.878;2024-02-15T01:01:10;101040.64;;;4.33;66.17
50484;BME280;36409;52.168;20.878;2024-02-15T01:03:40;101038.05;;;4.33;65.64
50484;BME280;36409;52.168;20.878;2024-02-15T01:06:09;101042.36;;;4.33;65.44
50484;BME280;36409;52.168;20.878;2024-02-15T01:08:38;101042.36;;;4.33;65.73
50484;BME280;36409;52.168;20.878;2024-02-15T01:11:07;101037.17;;;4.31;65.84
50484;BME280;36409;52.168;20.878;2024-02-15T01:13:37;101034.61;;;4.33;65.26
50484;BME280;36409;52.168;20.878;2024-02-15T01:16:07;101035.44;;;4.32;66.09
50484;BME280;36409;52.168;20.878;2024-02-15T01:18:42;101030.27;;;4.32;66.12
50484;BME280;36409;52.168;20.878;2024-02-15T01:21:12;101034.53;;;4.30;66.01
50484;BME280;36409;52.168;20.878;2024-02-15T01:23:43;101034.53;;;4.30;66.24
50484;BME280;36409;52.168;20.878;2024-02-15T01:26:13;101031.95;;;4.30;65.86
50484;BME280;36409;52.168;20.878;2024-02-15T01:28:45;101029.36;;;4.30;65.73
50484;BME280;36409;52.168;20.878;2024-02-15T01:31:17;101029.36;;;4.30;65.88
50484;BME280;36409;52.168;20.878;2024-02-15T01:33:46;101029.34;;;4.28;65.89
50484;BME280;36409;52.168;20.878;2024-02-15T01:36:17;101026.75;;;4.28;66.22
50484;BME280;36409;52.168;20.878;2024-02-15T01:38:46;101026.77;;;4.30;66.14
50484;BME280;36409;52.168;20.878;2024-02-15T01:41:17;101025.92;;;4.29;66.00
50484;BME280;36409;52.168;20.878;2024-02-15T01:43:46;101032.78;;;4.29;66.10
50484;BME280;36409;52.168;20.878;2024-02-15T01:46:17;101024.19;;;4.30;66.01
50484;BME280;36409;52.168;20.878;2024-02-15T01:48:49;101026.77;;;4.30;66.00
50484;BME280;36409;52.168;20.878;2024-02-15T01:51:18;101019.00;;;4.28;65.97
50484;BME280;36409;52.168;20.878;2024-02-15T01:53:47;101024.19;;;4.30;65.78
50484;BME280;36409;52.168;20.878;2024-02-15T01:56:17;101014.75;;;4.30;66.15
50484;BME280;36409;52.168;20.878;2024-02-15T01:58:48;101016.44;;;4.30;65.59
50484;BME280;36409;52.168;20.878;2024-02-15T02:01:17;101016.44;;;4.30;66.02
50484;BME280;36409;52.168;20.878;2024-02-15T02:03:46;101011.27;;;4.30;66.09
50484;BME280;36409;52.168;20.878;2024-02-15T02:06:16;101009.52;;;4.29;66.39
50484;BME280;36409;52.168;20.878;2024-02-15T02:08:45;101003.49;;;4.28;66.28
50484;BME280;36409;52.168;20.878;2024-02-15T02:11:15;101003.49;;;4.28;66.15
50484;BME280;36409;52.168;20.878;2024-02-15T02:13:44;100998.33;;;4.28;66.02
50484;BME280;36409;52.168;20.878;2024-02-15T02:16:34;101006.08;;;4.28;65.85
50484;BME280;36409;52.168;20.878;2024-02-15T02:19:09;101004.35;;;4.29;65.75
50484;BME280;36409;52.168;20.878;2024-02-15T02:21:39;101007.83;;;4.29;66.13
50484;BME280;36409;52.168;20.878;2024-02-15T02:24:14;101005.24;;;4.29;66.10
50484;BME280;36409;52.168;20.878;2024-02-15T02:26:46;101007.83;;;4.29;66.24
50484;BME280;36409;52.168;20.878;2024-02-15T02:29:16;101005.24;;;4.29;65.94
50484;BME280;36409;52.168;20.878;2024-02-15T02:31:45;101013.02;;;4.31;65.86
50484;BME280;36409;52.168;20.878;2024-02-15T02:34:15;101004.41;;;4.30;66.10
50484;BME280;36409;52.168;20.878;2024-02-15T02:36:45;101006.98;;;4.30;65.87
50484;BME280;36409;52.168;20.878;2024-02-15T02:39:14;101006.98;;;4.30;65.92
50484;BME280;36409;52.168;20.878;2024-02-15T02:41:43;101006.94;;;4.29;66.34
50484;BME280;36409;52.168;20.878;2024-02-15T02:44:12;101005.24;;;4.29;65.83
50484;BME280;36409;52.168;20.878;2024-02-15T02:46:43;101000.93;;;4.30;66.42
50484;BME280;36409;52.168;20.878;2024-02-15T02:49:12;101004.35;;;4.29;66.12
50484;BME280;36409;52.168;20.878;2024-02-15T02:51:41;101001.74;;;4.27;66.03
50484;BME280;36409;52.168;20.878;2024-02-15T02:54:10;101002.60;;;4.28;66.06
50484;BME280;36409;52.168;20.878;2024-02-15T02:56:39;101009.50;;;4.27;65.88
50484;BME280;36409;52.168;20.878;2024-02-15T02:59:08;101006.06;;;4.27;66.08
50484;BME280;36409;52.168;20.878;2024-02-15T03:01:37;101002.60;;;4.28;66.20
50484;BME280;36409;52.168;20.878;2024-02-15T03:04:08;101007.77;;;4.28;66.35
50484;BME280;36409;52.168;20.878;2024-02-15T03:06:37;101006.91;;;4.27;66.34
50484;BME280;36409;52.168;20.878;2024-02-15T03:09:06;101006.94;;;4.29;66.26
50484;BME280;36409;52.168;20.878;2024-02-15T03:11:38;101006.91;;;4.27;66.14
50484;BME280;36409;52.168;20.878;2024-02-15T03:14:07;101010.36;;;4.28;66.34
50484;BME280;36409;52.168;20.878;2024-02-15T03:16:39;101007.77;;;4.28;66.41
50484;BME280;36409;52.168;20.878;2024-02-15T03:19:08;101012.09;;;4.27;66.38
50484;BME280;36409;52.168;20.878;2024-02-15T03:21:40;101010.36;;;4.28;66.20
50484;BME280;36409;52.168;20.878;2024-02-15T03:24:14;101014.67;;;4.27;66.65
50484;BME280;36409;52.168;20.878;2024-02-15T03:26:43;101015.52;;;4.28;66.71
50484;BME280;36409;52.168;20.878;2024-02-15T03:29:13;101001.72;;;4.26;66.67
50484;BME280;36409;52.168;20.878;2024-02-15T03:31:42;101008.59;;;4.25;66.72
50484;BME280;36409;52.168;20.878;2024-02-15T03:34:14;101014.64;;;4.26;66.16
50484;BME280;36409;52.168;20.878;2024-02-15T03:36:44;101012.92;;;4.26;66.28
50484;BME280;36409;52.168;20.878;2024-02-15T03:39:14;101006.84;;;4.24;66.71
50484;BME280;36409;52.168;20.878;2024-02-15T03:41:43;101007.73;;;4.25;66.55
50484;BME280;36409;52.168;20.878;2024-02-15T03:44:14;101008.56;;;4.24;66.19
50484;BME280;36409;52.168;20.878;2024-02-15T03:46:42;101009.40;;;4.23;66.22
50484;BME280;36409;52.168;20.878;2024-02-15T03:49:12;101009.40;;;4.23;66.86
50484;BME280;36409;52.168;20.878;2024-02-15T03:51:44;101008.55;;;4.22;66.52
50484;BME280;36409;52.168;20.878;2024-02-15T03:54:13;101007.66;;;4.22;66.35
50484;BME280;36409;52.168;20.878;2024-02-15T03:56:48;100999.90;;;4.22;66.40
50484;BME280;36409;52.168;20.878;2024-02-15T03:59:20;101004.21;;;4.21;66.49
50484;BME280;36409;52.168;20.878;2024-02-15T04:01:55;101005.95;;;4.22;66.24
50484;BME280;36409;52.168;20.878;2024-02-15T04:04:27;101000.73;;;4.21;66.40
50484;BME280;36409;52.168;20.878;2024-02-15T04:06:58;101006.73;;;4.20;66.37
50484;BME280;36409;52.168;20.878;2024-02-15T04:09:28;101006.73;;;4.20;67.05
50484;BME280;36409;52.168;20.878;2024-02-15T04:12:05;101009.33;;;4.20;66.45
50484;BME280;36409;52.168;20.878;2024-02-15T04:14:37;101004.98;;;4.18;66.36
50484;BME280;36409;52.168;20.878;2024-02-15T04:17:07;100999.80;;;4.17;66.37
50484;BME280;36409;52.168;20.878;2024-02-15T04:19:39;101007.55;;;4.17;66.58
50484;BME280;36409;52.168;20.878;2024-02-15T04:22:11;101000.66;;;4.17;67.03
50484;BME280;36409;52.168;20.878;2024-02-15T04:24:39;100998.94;;;4.16;66.91
50484;BME280;36409;52.168;20.878;2024-02-15T04:27:09;101011.00;;;4.17;66.48
50484;BME280;36409;52.168;20.878;2024-02-15T04:29:44;101009.28;;;4.16;66.83
50484;BME280;36409;52.168;20.878;2024-02-15T04:32:14;101007.53;;;4.15;67.23
50484;BME280;36409;52.168;20.878;2024-02-15T04:34:44;101009.22;;;4.15;66.64
50484;BME280;36409;52.168;20.878;2024-02-15T04:37:15;101006.64;;;4.15;66.62
50484;BME280;36409;52.168;20.878;2024-02-15T04:39:45;101007.48;;;4.14;66.93
50484;BME280;36409;52.168;20.878;2024-02-15T04:42:15;101014.38;;;4.13;66.90
50484;BME280;36409;52.168;20.878;2024-02-15T04:44:46;101004.03;;;4.13;66.89
50484;BME280;36409;52.168;20.878;2024-02-15T04:47:23;101006.62;;;4.13;66.95
50484;BME280;36409;52.168;20.878;2024-02-15T04:49:59;101009.20;;;4.13;67.01
50484;BME280;36409;52.168;20.878;2024-02-15T04:52:28;101008.37;;;4.14;67.40
50484;BME280;36409;52.168;20.878;2024-02-15T04:54:59;101015.28;;;4.15;67.40
50484;BME280;36409;52.168;20.878;2024-02-15T04:57:27;101013.55;;;4.16;67.15
50484;BME280;36409;52.168;20.878;2024-02-15T04:59:56;101006.70;;;4.16;67.12
50484;BME280;36409;52.168;20.878;2024-02-15T05:02:28;101012.70;;;4.15;67.08
50484;BME280;36409;52.168;20.878;2024-02-15T05:04:57;101021.31;;;4.16;66.93
50484;BME280;36409;52.168;20.878;2024-02-15T05:07:26;101023.03;;;4.15;66.96
50484;BME280;36409;52.168;20.878;2024-02-15T05:09:55;101012.70;;;4.15;66.97
50484;BME280;36409;52.168;20.878;2024-02-15T05:12:25;101015.28;;;4.15;67.28
50484;BME280;36409;52.168;20.878;2024-02-15T05:14:54;101015.28;;;4.15;67.32
50484;BME280;36409;52.168;20.878;2024-02-15T05:17:25;101010.11;;;4.15;67.18
50484;BME280;36409;52.168;20.878;2024-02-15T05:19:57;101012.70;;;4.15;67.67
50484;BME280;36409;52.168;20.878;2024-02-15T05:22:27;101016.14;;;4.16;66.75
50484;BME280;36409;52.168;20.878;2024-02-15T05:24:57;101014.45;;;4.16;67.12
50484;BME280;36409;52.168;20.878;2024-02-15T05:27:26;101019.61;;;4.16;67.13
50484;BME280;36409;52.168;20.878;2024-02-15T05:29:55;101019.61;;;4.16;67.45
50484;BME280;36409;52.168;20.878;2024-02-15T05:32:24;101029.03;;;4.14;66.98
50484;BME280;36409;52.168;20.878;2024-02-15T05:34:55;101032.48;;;4.15;66.98
50484;BME280;36409;52.168;20.878;2024-02-15T05:37:24;101034.20;;;4.14;67.82
50484;BME280;36409;52.168;20.878;2024-02-15T05:39:54;101034.15;;;4.13;67.82
50484;BME280;36409;52.168;20.878;2024-02-15T05:42:27;101025.52;;;4.11;67.52
50484;BME280;36409;52.168;20.878;2024-02-15T05:45:14;101035.80;;;4.09;67.10
50484;BME280;36409;52.168;20.878;2024-02-15T05:47:51;101036.61;;;4.07;67.64
50484;BME280;36409;52.168;20.878;2024-02-15T05:50:21;101039.17;;;4.05;67.74
50484;BME280;36409;52.168;20.878;2024-02-15T05:52:52;101033.94;;;4.04;67.64
50484;BME280;36409;52.168;20.878;2024-02-15T05:55:23;101034.78;;;4.02;67.98
50484;BME280;36409;52.168;20.878;2024-02-15T05:58:08;101035.59;;;4.00;67.37
50484;BME280;36409;52.168;20.878;2024-02-15T06:00:45;101033.84;;;3.99;67.52
50484;BME280;36409;52.168;20.878;2024-02-15T06:03:18;101034.65;;;3.96;67.52
50484;BME280;36409;52.168;20.878;2024-02-15T06:05:51;101039.76;;;3.95;67.54
50484;BME280;36409;52.168;20.878;2024-02-15T06:08:20;101036.30;;;3.93;67.55
50484;BME280;36409;52.168;20.878;2024-02-15T06:10:51;101038.81;;;3.91;67.81
50484;BME280;36409;52.168;20.878;2024-02-15T06:13:23;101043.98;;;3.91;68.41
50484;BME280;36409;52.168;20.878;2024-02-15T06:15:53;101051.71;;;3.90;68.29
50484;BME280;36409;52.168;20.878;2024-02-15T06:18:28;101051.63;;;3.86;68.46
50484;BME280;36409;52.168;20.878;2024-02-15T06:20:58;101053.35;;;3.86;68.15
50484;BME280;36409;52.168;20.878;2024-02-15T06:23:29;101051.63;;;3.86;68.92
50484;BME280;36409;52.168;20.878;2024-02-15T06:25:58;101050.77;;;3.86;68.56
50484;BME280;36409;52.168;20.878;2024-02-15T06:28:29;101055.96;;;3.88;68.22
50484;BME280;36409;52.168;20.878;2024-02-15T06:31:17;101056.80;;;3.86;68.84
50484;BME280;36409;52.168;20.878;2024-02-15T06:34:12;101054.21;;;3.86;68.69
50484;BME280;36409;52.168;20.878;2024-02-15T06:37:01;101059.38;;;3.86;69.27
50484;BME280;36409;52.168;20.878;2024-02-15T06:39:52;101061.95;;;3.86;68.53
50484;BME280;36409;52.168;20.878;2024-02-15T06:42:22;101063.69;;;3.86;69.04
50484;BME280;36409;52.168;20.878;2024-02-15T06:44:51;101066.27;;;3.86;69.67
50484;BME280;36409;52.168;20.878;2024-02-15T06:47:22;101061.04;;;3.84;69.25
50484;BME280;36409;52.168;20.878;2024-02-15T06:49:51;101066.16;;;3.81;68.98
50484;BME280;36409;52.168;20.878;2024-02-15T06:52:22;101073.02;;;3.81;69.20
50484;BME280;36409;52.168;20.878;2024-02-15T06:54:51;101072.09;;;3.79;69.86
50484;BME280;36409;52.168;20.878;2024-02-15T06:57:21;101065.16;;;3.76;69.10
50484;BME280;36409;52.168;20.878;2024-02-15T06:59:51;101066.05;;;3.77;69.80
50484;BME280;36409;52.168;20.878;2024-02-15T07:02:20;101068.56;;;3.75;69.29
50484;BME280;36409;52.168;20.878;2024-02-15T07:04:51;101067.66;;;3.73;69.80
50484;BME280;36409;52.168;20.878;2024-02-15T07:07:23;101075.39;;;3.73;69.70
50484;BME280;36409;52.168;20.878;2024-02-15T07:09:52;101078.88;;;3.74;69.81
50484;BME280;36409;52.168;20.878;2024-02-15T07:12:22;101077.13;;;3.73;69.58
50484;BME280;36409;52.168;20.878;2024-02-15T07:14:51;101077.92;;;3.70;70.38
50484;BME280;36409;52.168;20.878;2024-02-15T07:17:21;101077.87;;;3.68;69.89
50484;BME280;36409;52.168;20.878;2024-02-15T07:19:50;101076.95;;;3.66;70.75
50484;BME280;36409;52.168;20.878;2024-02-15T07:22:19;101073.48;;;3.64;69.94
50484;BME280;36409;52.168;20.878;2024-02-15T07:24:51;101078.70;;;3.67;70.25
50484;BME280;36409;52.168;20.878;2024-02-15T07:27:20;101085.61;;;3.68;70.91
50484;BME280;36409;52.168;20.878;2024-02-15T07:29:52;101085.67;;;3.70;70.90
50484;BME280;36409;52.168;20.878;2024-02-15T07:32:21;101095.20;;;3.73;71.16
50484;BME280;36409;52.168;20.878;2024-02-15T07:34:51;101088.31;;;3.73;70.61
50484;BME280;36409;52.168;20.878;2024-02-15T07:37:20;101082.31;;;3.74;70.73
50484;BME280;36409;52.168;20.878;2024-02-15T07:40:07;101082.40;;;3.77;71.40
50484;BME280;36409;52.168;20.878;2024-02-15T07:42:56;101079.91;;;3.80;70.83
50484;BME280;36409;52.168;20.878;2024-02-15T07:45:25;101076.53;;;3.84;70.83
50484;BME280;36409;52.168;20.878;2024-02-15T07:47:58;101076.65;;;3.89;71.65
50484;BME280;36409;52.168;20.878;2024-02-15T07:50:42;101074.20;;;3.94;70.98
50484;BME280;36409;52.168;20.878;2024-02-15T07:53:13;101075.20;;;4.00;71.11
50484;BME280;36409;52.168;20.878;2024-02-15T07:55:48;101074.45;;;4.05;71.01
50484;BME280;36409;52.168;20.878;2024-02-15T07:58:18;101077.92;;;4.05;71.83
50484;BME280;36409;52.168;20.878;2024-02-15T08:00:53;101072.78;;;4.07;71.62
50484;BME280;36409;52.168;20.878;2024-02-15T08:03:22;101079.72;;;4.09;71.55
50484;BME280;36409;52.168;20.878;2024-02-15T08:05:51;101075.49;;;4.13;71.60
50484;BME280;36409;52.168;20.878;2024-02-15T08:08:21;101071.22;;;4.13;72.00
50484;BME280;36409;52.168;20.878;2024-02-15T08:10:52;101079.89;;;4.15;71.62
50484;BME280;36409;52.168;20.878;2024-02-15T08:13:21;101070.51;;;4.21;72.18
50484;BME280;36409;52.168;20.878;2024-02-15T08:16:00;101079.17;;;4.23;72.22
50484;BME280;36409;52.168;20.878;2024-02-15T08:18:35;101074.87;;;4.23;72.44
50484;BME280;36409;52.168;20.878;2024-02-15T08:21:11;101077.43;;;4.22;72.32
50484;BME280;36409;52.168;20.878;2024-02-15T08:23:40;101074.87;;;4.23;71.97
50484;BME280;36409;52.168;20.878;2024-02-15T08:26:10;101075.76;;;4.24;72.08
50484;BME280;36409;52.168;20.878;2024-02-15T08:28:40;101074.11;;;4.27;71.99
50484;BME280;36409;52.168;20.878;2024-02-15T08:31:09;101084.47;;;4.29;72.41
50484;BME280;36409;52.168;20.878;2024-02-15T08:33:41;101081.13;;;4.33;72.19
50484;BME280;36409;52.168;20.878;2024-02-15T08:36:17;101080.38;;;4.37;72.80
50484;BME280;36409;52.168;20.878;2024-02-15T08:38:50;101073.50;;;4.39;72.09
50484;BME280;36409;52.168;20.878;2024-02-15T08:41:19;101078.75;;;4.42;72.64
50484;BME280;36409;52.168;20.878;2024-02-15T08:43:49;101080.52;;;4.45;72.87
50484;BME280;36409;52.168;20.878;2024-02-15T08:46:21;101082.33;;;4.47;72.42
50484;BME280;36409;52.168;20.878;2024-02-15T08:48:52;101089.27;;;4.50;72.80
50484;BME280;36409;52.168;20.878;2024-02-15T08:51:23;101085.03;;;4.54;72.95
50484;BME280;36409;52.168;20.878;2024-02-15T08:54:00;101089.45;;;4.58;72.28
50484;BME280;36409;52.168;20.878;2024-02-15T08:56:30;101095.58;;;4.63;72.96
50484;BME280;36409;52.168;20.878;2024-02-15T08:59:02;101088.78;;;4.67;72.67
50484;BME280;36409;52.168;20.878;2024-02-15T09:01:34;101100.08;;;4.72;73.22
50484;BME280;36409;52.168;20.878;2024-02-15T09:04:22;101101.92;;;4.77;73.26
50484;BME280;36409;52.168;20.878;2024-02-15T09:06:59;101102.07;;;4.84;73.06
50484;BME280;36409;52.168;20.878;2024-02-15T09:09:51;101101.35;;;4.91;72.90
50484;BME280;36409;52.168;20.878;2024-02-15T09:12:20;101101.46;;;4.97;72.76
50484;BME280;36409;52.168;20.878;2024-02-15T09:14:53;101100.77;;;5.04;73.40
50484;BME280;36409;52.168;20.878;2024-02-15T09:17:23;101098.28;;;5.10;73.32
50484;BME280;36409;52.168;20.878;2024-02-15T09:19:54;101093.18;;;5.14;73.48
50484;BME280;36409;52.168;20.878;2024-02-15T09:22:24;101094.93;;;5.15;73.01
50484;BME280;36409;52.168;20.878;2024-02-15T09:25:12;101098.44;;;5.18;73.43
50484;BME280;36409;52.168;20.878;2024-02-15T09:27:56;101099.35;;;5.20;73.32
50484;BME280;36409;52.168;20.878;2024-02-15T09:30:30;101095.94;;;5.23;73.51
50484;BME280;36409;52.168;20.878;2024-02-15T09:33:11;101102.03;;;5.25;73.55
50484;BME280;36409;52.168;20.878;2024-02-15T09:35:43;101108.97;;;5.28;73.34
50484;BME280;36409;52.168;20.878;2024-02-15T09:38:44;101112.48;;;5.31;73.70
50484;BME280;36409;52.168;20.878;2024-02-15T09:41:15;101113.41;;;5.35;73.64
50484;BME280;36409;52.168;20.878;2024-02-15T09:43:46;101113.53;;;5.39;73.61
50484;BME280;36409;52.168;20.878;2024-02-15T09:46:28;101115.36;;;5.45;73.37
50484;BME280;36409;52.168;20.878;2024-02-15T09:49:30;101105.13;;;5.53;73.56
50484;BME280;36409;52.168;20.878;2024-02-15T09:52:12;101106.91;;;5.55;73.74
50484;BME280;36409;52.168;20.878;2024-02-15T09:54:53;101102.66;;;5.59;73.75
50484;BME280;36409;52.168;20.878;2024-02-15T09:57:23;101108.74;;;5.61;73.94
50484;BME280;36409;52.168;20.878;2024-02-15T09:59:52;101100.98;;;5.63;73.64
50484;BME280;36409;52.168;20.878;2024-02-15T10:02:22;101104.44;;;5.63;73.91
50484;BME280;36409;52.168;20.878;2024-02-15T10:04:52;101101.89;;;5.65;73.78
50484;BME280;36409;52.168;20.878;2024-02-15T10:07:26;101106.19;;;5.64;73.67
50484;BME280;36409;52.168;20.878;2024-02-15T10:09:56;101100.16;;;5.65;73.59
50484;BME280;36409;52.168;20.878;2024-02-15T10:12:36;101096.80;;;5.69;73.98
50484;BME280;36409;52.168;20.878;2024-02-15T10:15:06;101096.78;;;5.68;73.70
50484;BME280;36409;52.168;20.878;2024-02-15T10:17:40;101095.05;;;5.68;73.88
50484;BME280;36409;52.168;20.878;2024-02-15T10:20:10;101094.22;;;5.71;74.22
50484;BME280;36409;52.168;20.878;2024-02-15T10:22:39;101090.83;;;5.74;73.94
50484;BME280;36409;52.168;20.878;2024-02-15T10:25:12;101096.93;;;5.77;73.89
50484;BME280;36409;52.168;20.878;2024-02-15T10:27:44;101090.92;;;5.80;74.25
50484;BME280;36409;52.168;20.878;2024-02-15T10:30:21;101089.16;;;5.77;74.31
50484;BME280;36409;52.168;20.878;2024-02-15T10:32:50;101090.91;;;5.78;74.29
50484;BME280;36409;52.168;20.878;2024-02-15T10:35:22;101088.33;;;5.80;74.18
50484;BME280;36409;52.168;20.878;2024-02-15T10:37:52;101085.75;;;5.81;74.40
50484;BME280;36409;52.168;20.878;2024-02-15T10:40:24;101079.77;;;5.84;74.08
50484;BME280;36409;52.168;20.878;2024-02-15T10:42:56;101076.34;;;5.85;74.34
50484;BME280;36409;52.168;20.878;2024-02-15T10:45:27;101074.62;;;5.87;74.50
50484;BME280;36409;52.168;20.878;2024-02-15T10:47:57;101074.67;;;5.90;74.40
50484;BME280;36409;52.168;20.878;2024-02-15T10:50:32;101069.55;;;5.93;74.30
50484;BME280;36409;52.168;20.878;2024-02-15T10:53:10;101069.67;;;5.99;74.71
50484;BME280;36409;52.168;20.878;2024-02-15T10:55:43;101073.16;;;6.00;74.48
50484;BME280;36409;52.168;20.878;2024-02-15T10:58:19;101068.83;;;6.00;74.62
50484;BME280;36409;52.168;20.878;2024-02-15T11:00:52;101063.69;;;6.02;74.33
50484;BME280;36409;52.168;20.878;2024-02-15T11:03:29;101068.05;;;6.06;74.73
50484;BME280;36409;52.168;20.878;2024-02-15T11:06:03;101071.55;;;6.10;74.61
50484;BME280;36409;52.168;20.878;2024-02-15T11:08:36;101067.33;;;6.15;74.91
50484;BME280;36409;52.168;20.878;2024-02-15T11:11:07;101069.12;;;6.19;75.00
50484;BME280;36409;52.168;20.878;2024-02-15T11:13:41;101072.66;;;6.26;75.08
50484;BME280;36409;52.168;20.878;2024-02-15T11:16:11;101068.42;;;6.31;75.18
50484;BME280;36409;52.168;20.878;2024-02-15T11:19:03;101053.83;;;6.38;75.05
50484;BME280;36409;52.168;20.878;2024-02-15T11:21:53;101063.42;;;6.45;75.21
50484;BME280;36409;52.168;20.878;2024-02-15T11:24:26;101057.49;;;6.52;75.11
50484;BME280;36409;52.168;20.878;2024-02-15T11:26:59;101054.13;;;6.61;75.03
50484;BME280;36409;52.168;20.878;2024-02-15T11:29:50;101055.97;;;6.68;75.08
50484;BME280;36409;52.168;20.878;2024-02-15T11:32:40;101059.53;;;6.78;75.17
50484;BME280;36409;52.168;20.878;2024-02-15T11:35:16;101048.45;;;6.91;75.20
50484;BME280;36409;52.168;20.878;2024-02-15T11:37:55;101045.19;;;7.08;75.50
50484;BME280;36409;52.168;20.878;2024-02-15T11:41:08;101040.14;;;7.23;75.61
50484;BME280;36409;52.168;20.878;2024-02-15T11:43:58;101042.05;;;7.43;75.39
50484;BME280;36409;52.168;20.878;2024-02-15T11:46:36;101043.95;;;7.58;75.07
50484;BME280;36409;52.168;20.878;2024-02-15T11:49:16;101043.17;;;7.70;75.73
50484;BME280;36409;52.168;20.878;2024-02-15T11:51:47;101046.70;;;7.78;75.39
50484;BME280;36409;52.168;20.878;2024-02-15T11:54:21;101042.45;;;7.86;75.35
50484;BME280;36409;52.168;20.878;2024-02-15T11:56:54;101034.72;;;7.97;75.58
50484;BME280;36409;52.168;20.878;2024-02-15T11:59:42;101043.49;;;8.10;75.21
50484;BME280;36409;52.168;20.878;2024-02-15T12:02:52;101045.27;;;8.17;75.86
50484;BME280;36409;52.168;20.878;2024-02-15T12:05:40;101043.55;;;8.19;75.64
50484;BME280;36409;52.168;20.878;2024-02-15T12:08:30;101034.91;;;8.28;75.49
50484;BME280;36409;52.168;20.878;2024-02-15T12:11:20;101033.23;;;8.40;75.46
50484;BME280;36409;52.168;20.878;2024-02-15T12:14:12;101034.20;;;8.48;75.88
50484;BME280;36409;52.168;20.878;2024-02-15T12:17:01;101021.22;;;8.53;75.06
50484;BME280;36409;52.168;20.878;2024-02-15T12:19:50;101026.41;;;8.54;75.53
50484;BME280;36409;52.168;20.878;2024-02-15T12:22:24;101030.73;;;8.52;75.05
50484;BME280;36409;52.168;20.878;2024-02-15T12:24:55;101028.14;;;8.49;75.42
50484;BME280;36409;52.168;20.878;2024-02-15T12:27:30;101032.46;;;8.48;74.93
50484;BME280;36409;52.168;20.878;2024-02-15T12:29:59;101031.61;;;8.48;75.23
50484;BME280;36409;52.168;20.878;2024-02-15T12:32:29;101024.66;;;8.48;75.50
50484;BME280;36409;52.168;20.878;2024-02-15T12:35:11;101029.00;;;8.48;75.45
50484;BME280;36409;52.168;20.878;2024-02-15T12:37:45;101033.30;;;8.44;74.98
50484;BME280;36409;52.168;20.878;2024-02-15T12:40:16;101030.66;;;8.43;75.09
50484;BME280;36409;52.168;20.878;2024-02-15T12:42:46;101035.02;;;8.42;75.30
50484;BME280;36409;52.168;20.878;2024-02-15T12:45:20;101024.61;;;8.42;74.76
50484;BME280;36409;52.168;20.878;2024-02-15T12:47:52;101024.61;;;8.42;75.17
50484;BME280;36409;52.168;20.878;2024-02-15T12:50:30;101025.48;;;8.46;75.03
50484;BME280;36409;52.168;20.878;2024-02-15T12:52:59;101030.75;;;8.49;75.71
50484;BME280;36409;52.168;20.878;2024-02-15T12:55:31;101021.21;;;8.54;75.18
50484;BME280;36409;52.168;20.878;2024-02-15T12:58:13;101022.97;;;8.61;75.01
50484;BME280;36409;52.168;20.878;2024-02-15T13:00:48;101018.66;;;8.67;74.62
50484;BME280;36409;52.168;20.878;2024-02-15T13:03:18;101016.95;;;8.73;75.24
50484;BME280;36409;52.168;20.878;2024-02-15T13:05:51;101016.11;;;8.79;74.83
50484;BME280;36409;52.168;20.878;2024-02-15T13:08:20;101003.97;;;8.83;74.84
50484;BME280;36409;52.168;20.878;2024-02-15T13:10:50;101008.31;;;8.84;75.08
50484;BME280;36409;52.168;20.878;2024-02-15T13:13:19;101003.13;;;8.87;75.67
50484;BME280;36409;52.168;20.878;2024-02-15T13:15:50;101002.25;;;8.89;74.76
50484;BME280;36409;52.168;20.878;2024-02-15T13:18:21;101004.88;;;8.92;75.41
50484;BME280;36409;52.168;20.878;2024-02-15T13:20:57;101004.88;;;8.94;74.91